Kezdőlap
METAR-TAF:

METAR-TAF

Repülőterek :

Vlagyivosztoki nemzetközi repülőtér

Vlagyivosztok, Oroszország

földrajzi szélesség: 43-07N, földrajzi hosszúság: 131-56E, magasság: 184 m

Jelenlegi meteorológiai megfigyelések

A jelentés 20 perccel ezelõtt készült, 22:00 UTC
Szélcsend
Hőmérséklet 11°C
Páratartalom 94%
Légköri nyomás 1013 hPa
Látótávolság 10 km, vagy több

METAR: UHWW 292200Z 00000MPS 9999 NSC 11/10 Q1013 R25L/0///70 NOSIG RMK QFE759

Idő: 08:20 (22:20 UTC)

Előrejelzés

A jelentés 2 órával és 20 perccel ezelõtt készült, 20:00 UTC
Az előrejelzés 29-én 21 óra UTC és 30-én 21 óra UTC között érvényes
Északi szél 6 kt
Látótávolság: 6000 m
Kevés felhő 1000 lábon
Szakadozott felhőzet 1600 lábon, Cumulonimbus.
enyhe záporok
30-én 02 óra UTC és 30-én 05 óra UTC között fokozatosan kialakuló
Déli szél 6 kt

TAF: UHWW 292000Z 2921/3021 35003MPS 6000 -SHRA FEW010 BKN016CB BECMG 3002/3005 18003MPS

Meteorológiai megfigyelések és előrejelzések több, mint 4000 repülőtéren (METAR és TAF jelentéseket).

A térképen piros és sárga pontok jelzik az elérhető meteorológiai állomásokat.

Mozgassa az egeret a pont fölött, hogy megjelenjen az állomás neve.

Azután kattintson az időjárási megfigyelések és előrejelzések megtekintéséhez.

A térkép megváltoztatása: kattintson a fekete keresztel jelölt zöld gombra ráközelítéshez, a vonallal jelölt zöld gombra távolításhoz, vagy a zöld nyilakra a szomszédos térképek eléréséhez.


METAR-TAF: